createdAt,value
2019-02-23T00:02:22.692Z,9.00
2019-02-23T00:04:50.460Z,7.87
2019-02-23T00:07:18.256Z,8.43
2019-02-23T00:09:46.044Z,8.13
2019-02-23T00:12:13.836Z,8.43
2019-02-23T00:14:41.647Z,7.63
2019-02-23T00:17:09.491Z,7.97
2019-02-23T00:19:37.267Z,7.73
2019-02-23T00:22:05.048Z,8.20
2019-02-23T00:24:32.785Z,7.77
2019-02-23T00:27:00.576Z,7.60
2019-02-23T00:29:28.315Z,7.57
2019-02-23T00:31:56.432Z,8.37
2019-02-23T00:34:24.146Z,8.03
2019-02-23T00:36:51.903Z,7.57
2019-02-23T00:39:19.691Z,7.87
2019-02-23T00:41:47.409Z,7.60
2019-02-23T00:44:15.174Z,7.67
2019-02-23T00:46:42.915Z,6.97
2019-02-23T00:49:10.703Z,7.70
2019-02-23T00:51:38.426Z,8.50
2019-02-23T00:54:06.220Z,7.93
2019-02-23T00:56:33.973Z,7.20
2019-02-23T00:59:01.739Z,6.90
2019-02-23T01:01:29.491Z,7.90
2019-02-23T01:03:57.255Z,6.77
2019-02-23T01:06:25.034Z,7.33
2019-02-23T01:08:52.834Z,7.07
2019-02-23T01:11:20.589Z,7.07
2019-02-23T01:13:48.343Z,7.30
2019-02-23T01:16:16.076Z,7.20
2019-02-23T01:18:43.875Z,7.03
2019-02-23T01:21:11.618Z,7.63
2019-02-23T01:23:39.368Z,6.10
2019-02-23T01:26:07.263Z,6.27
2019-02-23T01:28:35.005Z,6.80
2019-02-23T01:31:02.787Z,6.80
2019-02-23T01:33:30.573Z,6.80
2019-02-23T01:35:58.314Z,6.30
2019-02-23T01:38:26.097Z,6.43
2019-02-23T01:40:53.869Z,6.77
2019-02-23T01:43:21.730Z,7.40
2019-02-23T01:45:49.515Z,6.70
2019-02-23T01:48:17.254Z,7.17
2019-02-23T01:50:44.985Z,7.03
2019-02-23T01:53:12.771Z,6.60
2019-02-23T01:55:40.546Z,6.30
2019-02-23T01:58:08.308Z,6.37
2019-02-23T02:00:38.203Z,6.57
2019-02-23T02:03:05.926Z,6.50
2019-02-23T02:05:33.828Z,6.27
2019-02-23T02:08:01.580Z,6.83
2019-02-23T02:10:29.566Z,6.73
2019-02-23T02:12:57.317Z,6.67
2019-02-23T02:15:25.054Z,6.50
2019-02-23T02:17:52.782Z,6.33
2019-02-23T02:20:20.542Z,6.73
2019-02-23T02:22:48.361Z,6.10
2019-02-23T02:25:16.121Z,6.30
2019-02-23T02:27:43.883Z,6.40
2019-02-23T02:30:11.942Z,6.07
2019-02-23T02:32:39.702Z,7.03
2019-02-23T02:35:08.812Z,7.17
2019-02-23T02:37:36.564Z,6.33
2019-02-23T02:40:05.141Z,6.70
2019-02-23T02:42:32.869Z,6.17
2019-02-23T02:45:00.605Z,7.87
2019-02-23T02:47:28.373Z,6.13
2019-02-23T02:49:56.128Z,7.00
2019-02-23T02:52:23.953Z,6.20
2019-02-23T02:54:51.792Z,6.53
2019-02-23T02:57:19.583Z,6.83
2019-02-23T02:59:47.337Z,6.70
2019-02-23T03:02:15.128Z,6.80
2019-02-23T03:04:42.962Z,6.20
2019-02-23T03:07:10.793Z,6.87
2019-02-23T03:09:38.557Z,6.57
2019-02-23T03:12:06.353Z,6.80
2019-02-23T03:14:34.060Z,6.50
2019-02-23T03:17:01.818Z,6.67
2019-02-23T03:19:29.562Z,6.97
2019-02-23T03:22:00.341Z,6.97
2019-02-23T03:24:28.152Z,6.93
2019-02-23T03:26:55.889Z,6.70
2019-02-23T03:29:23.628Z,7.23
2019-02-23T03:31:51.411Z,6.77
2019-02-23T03:34:19.163Z,6.67
2019-02-23T03:36:46.887Z,6.93
2019-02-23T03:39:14.679Z,6.50
2019-02-23T03:41:42.414Z,6.40
2019-02-23T03:44:10.175Z,6.73
2019-02-23T03:46:37.938Z,6.60
2019-02-23T03:49:06.071Z,6.67
2019-02-23T03:51:33.834Z,6.40
2019-02-23T03:54:01.546Z,6.50
2019-02-23T03:56:29.326Z,6.30
2019-02-23T03:58:59.938Z,6.80
2019-02-23T04:01:27.712Z,5.80
2019-02-23T04:03:55.473Z,6.40
2019-02-23T04:06:23.330Z,6.20
2019-02-23T04:08:51.112Z,6.50
2019-02-23T04:11:18.905Z,6.67
2019-02-23T04:13:46.672Z,6.47
2019-02-23T04:16:14.427Z,6.97
2019-02-23T04:18:42.188Z,6.47
2019-02-23T04:21:09.924Z,6.40
2019-02-23T04:23:37.709Z,6.97
2019-02-23T04:26:05.464Z,5.97
2019-02-23T04:28:33.213Z,6.20
2019-02-23T04:31:00.983Z,6.40
2019-02-23T04:33:28.942Z,6.57
2019-02-23T04:35:56.661Z,6.80
2019-02-23T04:38:24.402Z,6.00
2019-02-23T04:40:52.295Z,6.23
2019-02-23T04:43:20.049Z,6.97
2019-02-23T04:45:47.989Z,6.80
2019-02-23T04:48:15.787Z,6.37
2019-02-23T04:50:43.533Z,6.60
2019-02-23T04:53:11.321Z,6.33
2019-02-23T04:55:39.054Z,6.67
2019-02-23T04:58:06.828Z,6.43
2019-02-23T05:00:34.671Z,6.67
2019-02-23T05:03:02.450Z,6.70
2019-02-23T05:05:30.190Z,6.70
2019-02-23T05:07:57.941Z,6.30
2019-02-23T05:10:25.922Z,6.57
2019-02-23T05:12:53.696Z,6.83
2019-02-23T05:15:21.456Z,6.80
2019-02-23T05:17:49.218Z,6.67
2019-02-23T05:20:16.948Z,7.07
2019-02-23T05:22:44.690Z,6.33
2019-02-23T05:25:12.432Z,6.90
2019-02-23T05:27:40.193Z,6.67
2019-02-23T05:30:08.948Z,6.50
2019-02-23T05:32:36.709Z,6.30
2019-02-23T05:35:05.209Z,6.07
2019-02-23T05:37:32.943Z,6.30
2019-02-23T05:40:00.723Z,6.70
2019-02-23T05:42:28.491Z,6.60
2019-02-23T05:44:56.264Z,6.97
2019-02-23T05:47:24.036Z,6.97
2019-02-23T05:49:51.834Z,6.67
2019-02-23T05:52:19.590Z,7.03
2019-02-23T05:54:47.363Z,7.40
2019-02-23T05:57:15.138Z,6.93
2019-02-23T05:59:43.151Z,7.33
2019-02-23T06:02:11.012Z,7.43
2019-02-23T06:04:38.853Z,8.10
2019-02-23T06:07:06.631Z,8.00
2019-02-23T06:09:34.426Z,7.43
2019-02-23T06:12:02.216Z,7.33
2019-02-23T06:14:29.970Z,6.97
2019-02-23T06:16:57.756Z,7.27
2019-02-23T06:19:25.574Z,6.87
2019-02-23T06:21:54.540Z,7.23
2019-02-23T06:24:22.538Z,7.10
2019-02-23T06:26:50.336Z,7.80
2019-02-23T06:29:18.103Z,6.90
2019-02-23T06:31:45.891Z,6.80
2019-02-23T06:34:16.513Z,7.40
2019-02-23T06:36:43.284Z,7.40
2019-02-23T06:39:11.019Z,7.53
2019-02-23T06:41:38.811Z,7.27
2019-02-23T06:44:06.547Z,7.43
2019-02-23T06:46:34.319Z,7.37
2019-02-23T06:49:02.069Z,7.73
2019-02-23T06:51:29.865Z,7.47
2019-02-23T06:53:57.627Z,7.57
2019-02-23T06:56:25.418Z,8.23
2019-02-23T06:58:53.205Z,7.87
2019-02-23T07:01:20.979Z,8.03
2019-02-23T07:03:48.691Z,8.17
2019-02-23T07:06:16.499Z,7.80
2019-02-23T07:08:44.511Z,7.97
2019-02-23T07:11:12.295Z,7.77
2019-02-23T07:13:40.065Z,8.10
2019-02-23T07:16:07.863Z,7.70
2019-02-23T07:18:35.629Z,7.97
2019-02-23T07:21:03.380Z,7.57
2019-02-23T07:23:31.113Z,8.07
2019-02-23T07:25:58.860Z,7.80
2019-02-23T07:28:26.609Z,7.80
2019-02-23T07:30:54.365Z,8.10
2019-02-23T07:33:32.328Z,7.97
2019-02-23T07:35:51.781Z,7.63
2019-02-23T07:38:19.537Z,7.50
2019-02-23T07:40:47.287Z,9.00
2019-02-23T07:43:15.039Z,7.53
2019-02-23T07:45:42.816Z,7.80
2019-02-23T07:48:10.565Z,7.93
2019-02-23T07:50:38.331Z,8.77
2019-02-23T07:53:06.098Z,8.20
2019-02-23T07:55:33.846Z,10.50
2019-02-23T07:58:01.636Z,9.30
2019-02-23T08:00:29.408Z,9.67
2019-02-23T08:02:57.204Z,8.60
2019-02-23T08:05:25.025Z,9.40
2019-02-23T08:07:52.810Z,9.00
2019-02-23T08:10:20.568Z,10.07
2019-02-23T08:12:48.365Z,9.80
2019-02-23T08:15:16.099Z,9.23
2019-02-23T08:17:43.925Z,9.27
2019-02-23T08:20:11.761Z,9.97
2019-02-23T08:22:39.567Z,8.87
2019-02-23T08:25:07.627Z,9.70
2019-02-23T08:27:35.389Z,10.17
2019-02-23T08:30:03.540Z,10.00
2019-02-23T08:32:31.327Z,9.40
2019-02-23T08:34:59.146Z,9.77
2019-02-23T08:37:26.939Z,9.73
2019-02-23T08:39:54.776Z,10.23
2019-02-23T08:42:22.629Z,9.87
2019-02-23T08:44:50.384Z,10.83
2019-02-23T08:47:18.182Z,11.13
2019-02-23T08:49:45.913Z,10.87
2019-02-23T08:52:15.207Z,10.47
2019-02-23T08:54:43.031Z,10.07
2019-02-23T08:57:10.831Z,11.03
2019-02-23T08:59:38.583Z,11.03
2019-02-23T09:02:06.386Z,10.80
2019-02-23T09:04:34.154Z,11.87
2019-02-23T09:07:01.996Z,12.33
2019-02-23T09:09:29.761Z,11.40
2019-02-23T09:11:57.527Z,11.17
2019-02-23T09:14:25.302Z,12.13
2019-02-23T09:16:53.130Z,11.67
2019-02-23T09:19:20.952Z,13.50
2019-02-23T09:21:48.728Z,12.50
2019-02-23T09:24:16.481Z,12.93
2019-02-23T09:26:44.276Z,13.30
2019-02-23T09:29:12.096Z,13.27
2019-02-23T09:31:39.884Z,13.37
2019-02-23T09:34:07.673Z,13.40
2019-02-23T09:36:35.493Z,14.13
2019-02-23T09:39:04.380Z,11.63
2019-02-23T09:41:32.148Z,12.63
2019-02-23T09:43:59.898Z,12.47
2019-02-23T09:46:27.733Z,12.17
2019-02-23T09:48:56.363Z,11.83
2019-02-23T09:51:24.257Z,11.67
2019-02-23T09:53:52.016Z,11.87
2019-02-23T09:56:19.814Z,11.70
2019-02-23T09:58:47.631Z,12.57
2019-02-23T10:01:15.592Z,11.67
2019-02-23T10:03:43.396Z,12.10
2019-02-23T10:06:11.241Z,12.23
2019-02-23T10:08:39.006Z,11.90
2019-02-23T10:11:07.160Z,12.13
2019-02-23T10:13:34.923Z,11.47
2019-02-23T10:16:02.796Z,12.37
2019-02-23T10:18:30.589Z,12.03
2019-02-23T10:20:58.437Z,11.33
2019-02-23T10:23:26.280Z,12.37
2019-02-23T10:25:54.060Z,11.83
2019-02-23T10:28:21.823Z,11.70
2019-02-23T10:30:49.606Z,11.07
2019-02-23T10:33:17.367Z,11.50
2019-02-23T10:35:45.094Z,11.93
2019-02-23T10:38:12.871Z,11.93
2019-02-23T10:40:40.650Z,11.50
2019-02-23T10:43:08.391Z,12.37
2019-02-23T10:45:36.187Z,12.20
2019-02-23T10:48:05.338Z,12.60
2019-02-23T10:50:33.149Z,12.17
2019-02-23T10:53:00.939Z,12.17
2019-02-23T10:55:28.813Z,12.13
2019-02-23T10:57:56.614Z,11.67
2019-02-23T11:00:27.281Z,12.17
2019-02-23T11:02:55.045Z,11.27
2019-02-23T11:05:23.007Z,10.47
2019-02-23T11:07:50.795Z,10.93
2019-02-23T11:10:18.769Z,11.20
2019-02-23T11:12:46.527Z,11.03
2019-02-23T11:15:14.807Z,11.67
2019-02-23T11:17:42.595Z,11.77
2019-02-23T11:20:10.975Z,11.30
2019-02-23T11:22:38.899Z,11.70
2019-02-23T11:25:07.438Z,11.37
2019-02-23T11:27:35.262Z,11.27
2019-02-23T11:30:03.808Z,10.23
2019-02-23T11:32:31.590Z,10.57
2019-02-23T11:34:59.346Z,10.13
2019-02-23T11:37:27.182Z,11.70
2019-02-23T11:39:54.935Z,11.50
2019-02-23T11:42:22.771Z,12.00
2019-02-23T11:44:50.541Z,11.23
2019-02-23T11:47:18.336Z,11.60
2019-02-23T11:49:46.129Z,11.63
2019-02-23T11:52:13.918Z,12.10
2019-02-23T11:54:44.099Z,10.63
2019-02-23T11:57:11.407Z,12.53
2019-02-23T11:59:39.181Z,13.23
2019-02-23T12:02:06.956Z,11.90
2019-02-23T12:04:34.723Z,12.27
2019-02-23T12:07:02.536Z,12.45
2019-02-23T12:09:30.294Z,10.93
2019-02-23T12:11:58.048Z,11.93
2019-02-23T12:14:26.019Z,14.43
2019-02-23T12:16:53.806Z,13.17
2019-02-23T12:19:21.557Z,12.33
2019-02-23T12:21:49.339Z,14.60
2019-02-23T12:24:17.072Z,12.78
2019-02-23T12:26:44.806Z,13.83
2019-02-23T12:29:12.574Z,13.67
2019-02-23T12:31:40.362Z,12.37
2019-02-23T12:34:08.131Z,12.70
2019-02-23T12:36:35.940Z,13.87
2019-02-23T12:39:04.683Z,12.73
2019-02-23T12:41:32.474Z,12.37
2019-02-23T12:44:00.238Z,12.10
2019-02-23T12:46:27.945Z,11.60
2019-02-23T12:48:55.744Z,10.67
2019-02-23T12:51:23.500Z,10.90
2019-02-23T12:53:51.240Z,10.10
2019-02-23T12:56:18.999Z,10.93
2019-02-23T12:58:48.706Z,11.17
2019-02-23T13:01:16.481Z,10.03
2019-02-23T13:03:44.269Z,9.77
2019-02-23T13:06:12.041Z,9.47
2019-02-23T13:09:17.122Z,10.60
2019-02-23T13:12:15.095Z,9.77
2019-02-23T13:15:15.188Z,9.63
2019-02-23T13:19:06.743Z,10.03
2019-02-23T13:22:22.192Z,10.73
2019-02-23T13:25:34.334Z,9.30
2019-02-23T13:28:59.771Z,10.07
2019-02-23T13:32:09.704Z,11.10
2019-02-23T13:35:37.642Z,11.70
2019-02-23T13:38:49.434Z,12.90
2019-02-23T13:42:00.231Z,11.97
2019-02-23T13:45:18.259Z,10.40
2019-02-23T13:48:36.885Z,11.53
2019-02-23T13:51:50.355Z,12.47
2019-02-23T13:55:18.853Z,12.77
2019-02-23T13:58:19.255Z,12.40
2019-02-23T14:01:36.924Z,14.17
2019-02-23T14:04:57.785Z,14.27
2019-02-23T14:08:43.473Z,13.17
2019-02-23T14:12:01.926Z,14.10
2019-02-23T14:15:49.131Z,12.87
2019-02-23T14:19:10.098Z,13.33
2019-02-23T14:22:46.056Z,11.70
2019-02-23T14:26:15.714Z,11.67
2019-02-23T14:29:34.468Z,12.23
2019-02-23T14:32:56.385Z,11.53
2019-02-23T14:36:24.394Z,12.17
2019-02-23T14:39:50.484Z,11.23
2019-02-23T14:43:17.396Z,10.90
2019-02-23T14:46:57.022Z,9.47
2019-02-23T14:49:58.237Z,9.00
2019-02-23T14:53:19.542Z,8.73
2019-02-23T14:57:02.674Z,8.83
2019-02-23T15:00:20.905Z,8.27
2019-02-23T15:04:00.232Z,7.73
2019-02-23T15:07:49.941Z,8.60
2019-02-23T15:11:12.920Z,8.33
2019-02-23T15:14:48.992Z,7.87
2019-02-23T15:18:00.633Z,7.57
2019-02-23T15:21:18.118Z,8.10
2019-02-23T15:24:47.250Z,8.40
2019-02-23T15:27:53.537Z,8.17
2019-02-23T15:31:29.097Z,8.30
2019-02-23T15:34:54.124Z,7.57
2019-02-23T15:38:33.125Z,7.97
2019-02-23T15:41:47.396Z,7.77
2019-02-23T15:45:01.619Z,7.43
2019-02-23T15:48:34.603Z,7.03
2019-02-23T15:51:02.407Z,6.73
2019-02-23T15:53:30.225Z,6.47
2019-02-23T15:55:58.061Z,6.60
2019-02-23T15:58:25.860Z,6.67
2019-02-23T16:00:53.731Z,6.43
2019-02-23T16:03:21.510Z,6.20
2019-02-23T16:05:49.421Z,5.93
2019-02-23T16:08:17.217Z,5.60
2019-02-23T16:10:45.055Z,5.50
2019-02-23T16:13:12.792Z,5.63
2019-02-23T16:15:40.588Z,5.73
2019-02-23T16:18:08.347Z,5.50
2019-02-23T16:20:36.220Z,6.00
2019-02-23T16:23:04.020Z,5.97
2019-02-23T16:25:38.370Z,6.47
2019-02-23T16:28:01.609Z,6.20
2019-02-23T16:30:29.464Z,7.13
2019-02-23T16:32:57.285Z,7.57
2019-02-23T16:35:25.055Z,8.30
2019-02-23T16:37:52.857Z,7.87
2019-02-23T16:40:20.655Z,7.93
2019-02-23T16:42:48.418Z,9.27
2019-02-23T16:45:16.214Z,9.03
2019-02-23T16:47:43.986Z,8.97
2019-02-23T16:50:11.764Z,9.53
2019-02-23T16:52:39.613Z,10.27
2019-02-23T16:55:07.385Z,10.30
2019-02-23T16:57:35.171Z,9.43
2019-02-23T17:00:03.306Z,9.20
2019-02-23T17:02:31.054Z,8.30
2019-02-23T17:04:58.862Z,8.90
2019-02-23T17:07:26.630Z,8.40
2019-02-23T17:09:54.727Z,9.07
2019-02-23T17:12:22.474Z,8.40
2019-02-23T17:14:50.247Z,8.53
2019-02-23T17:17:18.016Z,8.93
2019-02-23T17:19:45.818Z,9.20
2019-02-23T17:22:13.601Z,8.87
2019-02-23T17:24:41.367Z,9.40
2019-02-23T17:27:09.186Z,8.97
2019-02-23T17:29:37.021Z,8.77
2019-02-23T17:32:06.756Z,9.07
2019-02-23T17:34:34.555Z,9.23
2019-02-23T17:37:02.321Z,9.20
2019-02-23T17:39:30.121Z,9.40
2019-02-23T17:41:57.979Z,10.83
2019-02-23T17:44:25.764Z,11.30
2019-02-23T17:46:53.551Z,10.73
2019-02-23T17:49:21.336Z,9.50
2019-02-23T17:51:49.110Z,10.33
2019-02-23T17:54:16.858Z,9.60
2019-02-23T17:56:44.617Z,11.80
2019-02-23T17:59:12.402Z,11.43
2019-02-23T18:01:40.244Z,12.33
2019-02-23T18:04:08.039Z,10.77
2019-02-23T18:06:35.781Z,9.90
2019-02-23T18:09:04.454Z,9.60
2019-02-23T18:11:32.205Z,9.33
2019-02-23T18:13:59.974Z,9.50
2019-02-23T18:16:27.774Z,9.67
2019-02-23T18:18:57.610Z,9.20
2019-02-23T18:21:25.571Z,9.53
2019-02-23T18:23:53.336Z,9.27
2019-02-23T18:26:22.074Z,10.03
2019-02-23T18:28:49.934Z,8.90
2019-02-23T18:31:17.786Z,9.60
2019-02-23T18:33:45.614Z,9.00
2019-02-23T18:36:13.441Z,9.83
2019-02-23T18:38:41.376Z,10.03
2019-02-23T18:41:09.185Z,10.37
2019-02-23T18:43:37.091Z,10.30
2019-02-23T18:46:05.018Z,9.77
2019-02-23T18:48:32.815Z,10.07
2019-02-23T18:51:00.891Z,10.17
2019-02-23T18:53:28.674Z,10.27
2019-02-23T18:55:56.476Z,9.50
2019-02-23T18:58:24.272Z,9.90
2019-02-23T19:00:52.058Z,9.90
2019-02-23T19:03:19.846Z,9.73
2019-02-23T19:05:49.945Z,10.00
2019-02-23T19:08:17.265Z,9.80
2019-02-23T19:10:45.125Z,10.57
2019-02-23T19:13:12.869Z,10.10
2019-02-23T19:15:40.693Z,10.03
2019-02-23T19:18:08.490Z,9.43
2019-02-23T19:20:36.283Z,9.27
2019-02-23T19:23:04.041Z,10.07
2019-02-23T19:25:31.857Z,10.03
2019-02-23T19:27:59.617Z,10.17
2019-02-23T19:30:27.471Z,9.97
2019-02-23T19:32:55.191Z,10.20
2019-02-23T19:35:22.995Z,9.83
2019-02-23T19:37:50.850Z,9.37
2019-02-23T19:40:18.691Z,10.87
2019-02-23T19:42:46.511Z,10.03
2019-02-23T19:45:14.312Z,10.10
2019-02-23T19:47:42.117Z,10.10
2019-02-23T19:50:14.691Z,9.87
2019-02-23T19:52:42.835Z,10.33
2019-02-23T19:55:12.840Z,10.40
2019-02-23T19:57:40.710Z,10.60
2019-02-23T20:00:08.568Z,10.77
2019-02-23T20:02:36.358Z,10.57
2019-02-23T20:05:04.298Z,11.07
2019-02-23T20:07:32.091Z,11.10
2019-02-23T20:09:59.889Z,11.70
2019-02-23T20:12:28.233Z,11.90
2019-02-23T20:14:56.099Z,12.73
2019-02-23T20:17:23.932Z,12.47
2019-02-23T20:19:51.685Z,12.27
2019-02-23T20:22:19.476Z,11.80
2019-02-23T20:24:48.148Z,12.67
2019-02-23T20:27:15.908Z,12.80
2019-02-23T20:29:43.750Z,11.63
2019-02-23T20:32:11.512Z,12.37
2019-02-23T20:34:39.266Z,12.73
2019-02-23T20:37:07.079Z,11.70
2019-02-23T20:39:34.947Z,12.13
2019-02-23T20:42:02.714Z,12.47
2019-02-23T20:44:30.506Z,11.90
2019-02-23T20:46:58.357Z,11.90
2019-02-23T20:49:26.239Z,11.83
2019-02-23T20:51:54.035Z,11.53
2019-02-23T20:54:24.836Z,11.43
2019-02-23T20:56:52.575Z,11.63
2019-02-23T20:59:20.385Z,11.60
2019-02-23T21:01:48.150Z,12.23
2019-02-23T21:04:15.946Z,11.67
2019-02-23T21:06:43.749Z,12.30
2019-02-23T21:09:11.857Z,11.73
2019-02-23T21:11:39.679Z,11.90
2019-02-23T21:14:07.476Z,11.90
2019-02-23T21:16:35.250Z,11.93
2019-02-23T21:19:03.027Z,11.70
2019-02-23T21:21:30.783Z,11.63
2019-02-23T21:23:58.577Z,13.27
2019-02-23T21:26:26.357Z,12.27
2019-02-23T21:28:54.146Z,12.00
2019-02-23T21:31:21.915Z,12.33
2019-02-23T21:33:49.689Z,12.13
2019-02-23T21:36:17.430Z,12.90
2019-02-23T21:38:45.217Z,12.50
2019-02-23T21:41:13.010Z,13.00
2019-02-23T21:43:40.781Z,11.87
2019-02-23T21:46:08.587Z,11.77
2019-02-23T21:48:36.843Z,12.23
2019-02-23T21:51:04.599Z,11.43
2019-02-23T21:53:32.346Z,10.80
2019-02-23T21:56:00.074Z,12.17
2019-02-23T21:58:27.885Z,12.57
2019-02-23T22:00:55.782Z,11.53
2019-02-23T22:03:23.638Z,12.23
2019-02-23T22:05:51.457Z,11.60
2019-02-23T22:08:19.309Z,10.80
2019-02-23T22:10:47.308Z,11.20
2019-02-23T22:13:15.235Z,9.97
2019-02-23T22:15:43.086Z,11.07
2019-02-23T22:18:10.907Z,11.07
2019-02-23T22:20:38.763Z,10.80
2019-02-23T22:23:06.541Z,11.73
2019-02-23T22:25:34.281Z,10.70
2019-02-23T22:28:02.026Z,10.97
2019-02-23T22:30:29.766Z,11.43
2019-02-23T22:32:57.528Z,11.37
2019-02-23T22:35:25.261Z,10.87
2019-02-23T22:37:53.162Z,49.23
2019-02-23T22:40:20.980Z,13.80
2019-02-23T22:42:48.777Z,10.33
2019-02-23T22:45:16.553Z,11.33
2019-02-23T22:47:44.287Z,10.17
2019-02-23T22:50:12.151Z,9.60
2019-02-23T22:52:39.947Z,9.60
2019-02-23T22:55:07.728Z,10.70
2019-02-23T22:57:40.673Z,10.40
2019-02-23T23:00:07.376Z,9.90
2019-02-23T23:02:35.122Z,10.63
2019-02-23T23:05:03.043Z,9.83
2019-02-23T23:07:30.833Z,10.27
2019-02-23T23:09:58.593Z,10.10
2019-02-23T23:12:26.373Z,10.57
2019-02-23T23:14:54.197Z,10.63
2019-02-23T23:17:21.973Z,10.57
2019-02-23T23:19:49.760Z,10.10
2019-02-23T23:22:19.412Z,10.27
2019-02-23T23:24:47.177Z,9.50
2019-02-23T23:27:14.928Z,9.87
2019-02-23T23:29:42.764Z,10.10
2019-02-23T23:32:10.497Z,9.80
2019-02-23T23:34:38.255Z,10.73
2019-02-23T23:37:06.025Z,10.47
2019-02-23T23:39:33.876Z,10.37
2019-02-23T23:42:01.668Z,10.37
2019-02-23T23:44:29.486Z,10.80
2019-02-23T23:46:57.313Z,10.83
2019-02-23T23:49:25.166Z,10.73
2019-02-23T23:51:52.975Z,10.83
2019-02-23T23:54:20.778Z,11.67
2019-02-23T23:56:48.582Z,10.40
2019-02-23T23:59:16.325Z,11.30
